sensor_id;sensor_type;location;lat;lon;timestamp;pressure;altitude;pressure_sealevel;temperature;humidity
69909;BME280;57190;47.918;8.112;2023-02-12T00:00:29;92425.91;;;-1.59;63.53
69909;BME280;57190;47.918;8.112;2023-02-12T00:02:55;92426.06;;;-1.60;63.19
69909;BME280;57190;47.918;8.112;2023-02-12T00:05:20;92426.06;;;-1.60;62.93
69909;BME280;57190;47.918;8.112;2023-02-12T00:07:46;92421.63;;;-1.60;62.99
69909;BME280;57190;47.918;8.112;2023-02-12T00:10:11;92416.22;;;-1.58;63.04
69909;BME280;57190;47.918;8.112;2023-02-12T00:12:38;92415.13;;;-1.55;63.88
69909;BME280;57190;47.918;8.112;2023-02-12T00:15:03;92413.06;;;-1.44;63.23
69909;BME280;57190;47.918;8.112;2023-02-12T00:17:29;92410.94;;;-1.40;63.78
69909;BME280;57190;47.918;8.112;2023-02-12T00:19:54;92411.28;;;-1.35;64.40
69909;BME280;57190;47.918;8.112;2023-02-12T00:22:20;92404.91;;;-1.32;64.20
69909;BME280;57190;47.918;8.112;2023-02-12T00:24:45;92413.25;;;-1.29;63.88
69909;BME280;57190;47.918;8.112;2023-02-12T00:27:11;92406.72;;;-1.33;64.52
69909;BME280;57190;47.918;8.112;2023-02-12T00:29:36;92408.03;;;-1.29;64.84
69909;BME280;57190;47.918;8.112;2023-02-12T00:32:02;92414.72;;;-1.34;64.71
69909;BME280;57190;47.918;8.112;2023-02-12T00:34:27;92418.44;;;-1.45;65.16
69909;BME280;57190;47.918;8.112;2023-02-12T00:36:53;92418.25;;;-1.52;66.40
69909;BME280;57190;47.918;8.112;2023-02-12T00:39:18;92420.38;;;-1.55;67.29
69909;BME280;57190;47.918;8.112;2023-02-12T00:41:44;92427.41;;;-1.48;67.99
69909;BME280;57190;47.918;8.112;2023-02-12T00:44:09;92416.47;;;-1.43;68.53
69909;BME280;57190;47.918;8.112;2023-02-12T00:46:35;92426.53;;;-1.30;69.45
69909;BME280;57190;47.918;8.112;2023-02-12T00:49:00;92433.59;;;-1.22;70.10
69909;BME280;57190;47.918;8.112;2023-02-12T00:53:53;92435.44;;;-1.06;70.79
69909;BME280;57190;47.918;8.112;2023-02-12T00:56:18;92424.19;;;-0.99;71.29
69909;BME280;57190;47.918;8.112;2023-02-12T00:58:44;92419.66;;;-0.88;71.33
69909;BME280;57190;47.918;8.112;2023-02-12T01:01:09;92425.88;;;-0.81;71.44
69909;BME280;57190;47.918;8.112;2023-02-12T01:03:35;92430.75;;;-0.95;71.37
69909;BME280;57190;47.918;8.112;2023-02-12T01:06:02;92431.00;;;-1.14;71.45
69909;BME280;57190;47.918;8.112;2023-02-12T01:08:28;92432.72;;;-1.31;71.62
69909;BME280;57190;47.918;8.112;2023-02-12T01:10:57;92431.72;;;-1.38;71.94
69909;BME280;57190;47.918;8.112;2023-02-12T01:13:25;92424.06;;;-1.32;71.73
69909;BME280;57190;47.918;8.112;2023-02-12T01:16:22;92429.50;;;-1.17;71.06
69909;BME280;57190;47.918;8.112;2023-02-12T01:18:49;92425.78;;;-1.14;71.17
69909;BME280;57190;47.918;8.112;2023-02-12T01:21:20;92429.88;;;-1.12;70.68
69909;BME280;57190;47.918;8.112;2023-02-12T01:23:47;92433.47;;;-1.13;70.70
69909;BME280;57190;47.918;8.112;2023-02-12T01:26:15;92426.59;;;-1.14;70.94
69909;BME280;57190;47.918;8.112;2023-02-12T01:28:44;92431.81;;;-1.14;70.71
69909;BME280;57190;47.918;8.112;2023-02-12T01:31:16;92418.91;;;-1.15;70.49
69909;BME280;57190;47.918;8.112;2023-02-12T01:33:42;92422.78;;;-1.19;70.64
69909;BME280;57190;47.918;8.112;2023-02-12T01:36:10;92422.28;;;-1.23;70.87
69909;BME280;57190;47.918;8.112;2023-02-12T01:38:36;92413.75;;;-1.25;71.44
69909;BME280;57190;47.918;8.112;2023-02-12T01:41:08;92417.22;;;-1.24;71.68
69909;BME280;57190;47.918;8.112;2023-02-12T01:43:35;92417.56;;;-1.19;71.68
69909;BME280;57190;47.918;8.112;2023-02-12T01:46:03;92416.28;;;-1.15;71.10
69909;BME280;57190;47.918;8.112;2023-02-12T01:48:39;92415.44;;;-1.16;71.19
69909;BME280;57190;47.918;8.112;2023-02-12T01:51:08;92412.81;;;-1.16;71.41
69909;BME280;57190;47.918;8.112;2023-02-12T01:53:38;92405.59;;;-1.22;71.19
69909;BME280;57190;47.918;8.112;2023-02-12T01:56:06;92411.16;;;-1.25;71.54
69909;BME280;57190;47.918;8.112;2023-02-12T01:58:38;92410.50;;;-1.27;71.89
69909;BME280;57190;47.918;8.112;2023-02-12T02:01:08;92409.53;;;-1.26;72.24
69909;BME280;57190;47.918;8.112;2023-02-12T02:03:37;92407.41;;;-1.22;72.54
69909;BME280;57190;47.918;8.112;2023-02-12T02:06:17;92408.22;;;-1.22;72.77
69909;BME280;57190;47.918;8.112;2023-02-12T02:08:45;92412.50;;;-1.21;73.05
69909;BME280;57190;47.918;8.112;2023-02-12T02:11:12;92401.38;;;-1.15;73.11
69909;BME280;57190;47.918;8.112;2023-02-12T02:13:56;92406.13;;;-1.10;73.04
69909;BME280;57190;47.918;8.112;2023-02-12T02:16:44;92396.63;;;-1.11;73.42
69909;BME280;57190;47.918;8.112;2023-02-12T02:24:50;92401.19;;;-1.13;74.29
69909;BME280;57190;47.918;8.112;2023-02-12T02:33:14;92394.22;;;-1.04;75.35
69909;BME280;57190;47.918;8.112;2023-02-12T02:38:43;92393.38;;;-1.05;75.66
69909;BME280;57190;47.918;8.112;2023-02-12T02:41:24;92387.81;;;-1.02;74.85
69909;BME280;57190;47.918;8.112;2023-02-12T02:43:52;92384.72;;;-1.05;74.93
69909;BME280;57190;47.918;8.112;2023-02-12T02:49:12;92387.13;;;-1.12;75.51
69909;BME280;57190;47.918;8.112;2023-02-12T02:51:44;92382.72;;;-1.20;75.40
69909;BME280;57190;47.918;8.112;2023-02-12T02:54:18;92379.59;;;-1.23;75.77
69909;BME280;57190;47.918;8.112;2023-02-12T02:56:48;92378.28;;;-1.19;76.31
69909;BME280;57190;47.918;8.112;2023-02-12T02:59:25;92385.16;;;-1.18;76.16
69909;BME280;57190;47.918;8.112;2023-02-12T03:02:00;92381.06;;;-1.21;75.98
69909;BME280;57190;47.918;8.112;2023-02-12T03:04:36;92386.47;;;-1.22;76.42
69909;BME280;57190;47.918;8.112;2023-02-12T03:07:10;92389.72;;;-1.20;76.35
69909;BME280;57190;47.918;8.112;2023-02-12T03:09:42;92384.00;;;-1.24;76.50
69909;BME280;57190;47.918;8.112;2023-02-12T03:12:27;92382.00;;;-1.30;76.54
69909;BME280;57190;47.918;8.112;2023-02-12T03:15:05;92381.84;;;-1.29;76.66
69909;BME280;57190;47.918;8.112;2023-02-12T03:17:42;92369.13;;;-1.23;76.20
69909;BME280;57190;47.918;8.112;2023-02-12T03:20:21;92375.66;;;-1.19;76.75
69909;BME280;57190;47.918;8.112;2023-02-12T03:22:54;92374.19;;;-1.22;76.44
69909;BME280;57190;47.918;8.112;2023-02-12T03:25:27;92373.38;;;-1.22;76.68
69909;BME280;57190;47.918;8.112;2023-02-12T03:28:18;92378.75;;;-1.24;76.89
69909;BME280;57190;47.918;8.112;2023-02-12T03:30:52;92376.78;;;-1.30;76.31
69909;BME280;57190;47.918;8.112;2023-02-12T03:33:30;92386.28;;;-1.29;76.16
69909;BME280;57190;47.918;8.112;2023-02-12T03:36:01;92379.69;;;-1.33;75.64
69909;BME280;57190;47.918;8.112;2023-02-12T03:38:52;92383.44;;;-1.44;75.31
69909;BME280;57190;47.918;8.112;2023-02-12T03:41:24;92376.50;;;-1.53;75.66
69909;BME280;57190;47.918;8.112;2023-02-12T03:50:16;92379.88;;;-1.35;81.32
69909;BME280;57190;47.918;8.112;2023-02-12T03:52:44;92384.00;;;-1.24;82.87
69909;BME280;57190;47.918;8.112;2023-02-12T03:55:10;92377.13;;;-1.17;83.46
69909;BME280;57190;47.918;8.112;2023-02-12T03:57:40;92378.31;;;-1.11;83.64
69909;BME280;57190;47.918;8.112;2023-02-12T04:00:14;92375.22;;;-1.06;81.73
69909;BME280;57190;47.918;8.112;2023-02-12T04:02:40;92381.28;;;-1.06;82.25
69909;BME280;57190;47.918;8.112;2023-02-12T04:05:07;92383.94;;;-0.98;81.42
69909;BME280;57190;47.918;8.112;2023-02-12T04:07:34;92385.88;;;-1.00;81.13
69909;BME280;57190;47.918;8.112;2023-02-12T04:10:01;92387.03;;;-0.94;81.70
69909;BME280;57190;47.918;8.112;2023-02-12T04:12:38;92376.69;;;-0.96;82.01
69909;BME280;57190;47.918;8.112;2023-02-12T04:18:03;92398.16;;;-0.92;82.44
69909;BME280;57190;47.918;8.112;2023-02-12T04:23:14;92398.97;;;-1.00;82.61
69909;BME280;57190;47.918;8.112;2023-02-12T04:28:36;92420.19;;;-1.19;83.47
69909;BME280;57190;47.918;8.112;2023-02-12T04:31:21;92418.84;;;-1.32;84.16
69909;BME280;57190;47.918;8.112;2023-02-12T04:36:37;92426.47;;;-1.38;84.32
69909;BME280;57190;47.918;8.112;2023-02-12T04:39:11;92419.59;;;-1.39;84.62
69909;BME280;57190;47.918;8.112;2023-02-12T04:41:39;92422.06;;;-1.38;84.52
69909;BME280;57190;47.918;8.112;2023-02-12T04:46:40;92419.31;;;-1.36;84.26
69909;BME280;57190;47.918;8.112;2023-02-12T04:49:05;92422.25;;;-1.31;83.83
69909;BME280;57190;47.918;8.112;2023-02-12T04:51:33;92417.19;;;-1.33;83.14
69909;BME280;57190;47.918;8.112;2023-02-12T04:53:58;92423.88;;;-1.38;82.20
69909;BME280;57190;47.918;8.112;2023-02-12T04:56:24;92428.75;;;-1.44;81.49
69909;BME280;57190;47.918;8.112;2023-02-12T04:58:49;92429.19;;;-1.56;81.12
69909;BME280;57190;47.918;8.112;2023-02-12T05:01:15;92424.22;;;-1.68;80.02
69909;BME280;57190;47.918;8.112;2023-02-12T05:03:40;92421.25;;;-1.73;79.61
69909;BME280;57190;47.918;8.112;2023-02-12T05:06:07;92416.31;;;-1.76;79.39
69909;BME280;57190;47.918;8.112;2023-02-12T05:08:33;92414.03;;;-1.71;80.20
69909;BME280;57190;47.918;8.112;2023-02-12T05:11:06;92407.84;;;-1.70;79.46
69909;BME280;57190;47.918;8.112;2023-02-12T05:13:32;92409.44;;;-1.77;79.96
69909;BME280;57190;47.918;8.112;2023-02-12T05:15:58;92396.66;;;-1.80;80.16
69909;BME280;57190;47.918;8.112;2023-02-12T05:18:24;92398.00;;;-1.76;80.86
69909;BME280;57190;47.918;8.112;2023-02-12T05:20:56;92406.00;;;-1.78;81.61
69909;BME280;57190;47.918;8.112;2023-02-12T05:23:25;92408.75;;;-1.79;82.77
69909;BME280;57190;47.918;8.112;2023-02-12T05:25:51;92413.41;;;-1.73;83.79
69909;BME280;57190;47.918;8.112;2023-02-12T05:28:16;92405.22;;;-1.70;83.71
69909;BME280;57190;47.918;8.112;2023-02-12T05:30:42;92410.66;;;-1.63;83.90
69909;BME280;57190;47.918;8.112;2023-02-12T05:33:07;92408.66;;;-1.69;83.59
69909;BME280;57190;47.918;8.112;2023-02-12T05:35:36;92406.41;;;-1.64;83.77
69909;BME280;57190;47.918;8.112;2023-02-12T05:38:01;92407.06;;;-1.62;84.12
69909;BME280;57190;47.918;8.112;2023-02-12T05:40:27;92408.88;;;-1.54;84.14
69909;BME280;57190;47.918;8.112;2023-02-12T05:42:52;92412.00;;;-1.51;84.66
69909;BME280;57190;47.918;8.112;2023-02-12T05:45:18;92413.66;;;-1.50;84.52
69909;BME280;57190;47.918;8.112;2023-02-12T05:47:43;92415.00;;;-1.46;84.19
69909;BME280;57190;47.918;8.112;2023-02-12T05:50:09;92411.91;;;-1.41;84.07
69909;BME280;57190;47.918;8.112;2023-02-12T05:52:34;92408.16;;;-1.38;83.70
69909;BME280;57190;47.918;8.112;2023-02-12T05:55:00;92404.41;;;-1.36;83.69
69909;BME280;57190;47.918;8.112;2023-02-12T05:57:25;92407.84;;;-1.35;83.29
69909;BME280;57190;47.918;8.112;2023-02-12T05:59:51;92407.69;;;-1.34;83.83
69909;BME280;57190;47.918;8.112;2023-02-12T06:02:16;92406.03;;;-1.35;83.27
69909;BME280;57190;47.918;8.112;2023-02-12T06:04:42;92403.44;;;-1.35;83.45
69909;BME280;57190;47.918;8.112;2023-02-12T06:07:07;92404.09;;;-1.33;83.70
69909;BME280;57190;47.918;8.112;2023-02-12T06:09:33;92399.19;;;-1.28;83.70
69909;BME280;57190;47.918;8.112;2023-02-12T06:11:59;92395.44;;;-1.25;83.47
69909;BME280;57190;47.918;8.112;2023-02-12T06:14:25;92395.44;;;-1.25;83.66
69909;BME280;57190;47.918;8.112;2023-02-12T06:16:51;92395.81;;;-1.20;83.71
69909;BME280;57190;47.918;8.112;2023-02-12T06:19:18;92398.25;;;-1.18;84.07
69909;BME280;57190;47.918;8.112;2023-02-12T06:21:44;92400.69;;;-1.17;84.23
69909;BME280;57190;47.918;8.112;2023-02-12T06:24:11;92404.34;;;-1.09;84.25
69909;BME280;57190;47.918;8.112;2023-02-12T06:26:37;92395.66;;;-1.10;84.76
69909;BME280;57190;47.918;8.112;2023-02-12T06:29:02;92391.41;;;-1.11;85.24
69909;BME280;57190;47.918;8.112;2023-02-12T06:31:33;92394.38;;;-1.06;85.35
69909;BME280;57190;47.918;8.112;2023-02-12T06:34:01;92399.28;;;-1.03;85.28
69909;BME280;57190;47.918;8.112;2023-02-12T06:36:27;92395.00;;;-1.04;85.38
69909;BME280;57190;47.918;8.112;2023-02-12T06:38:52;92392.41;;;-1.04;85.43
69909;BME280;57190;47.918;8.112;2023-02-12T06:41:18;92396.34;;;-1.00;85.41
69909;BME280;57190;47.918;8.112;2023-02-12T06:43:44;92390.94;;;-0.98;85.29
69909;BME280;57190;47.918;8.112;2023-02-12T06:46:10;92387.53;;;-0.99;85.25
69909;BME280;57190;47.918;8.112;2023-02-12T06:48:36;92388.00;;;-0.95;85.27
69909;BME280;57190;47.918;8.112;2023-02-12T06:51:13;92394.72;;;-0.92;85.78
69909;BME280;57190;47.918;8.112;2023-02-12T06:53:39;92390.28;;;-0.92;85.66
69909;BME280;57190;47.918;8.112;2023-02-12T06:56:06;92396.69;;;-0.86;85.26
69909;BME280;57190;47.918;8.112;2023-02-12T06:58:36;92399.81;;;-0.83;85.40
69909;BME280;57190;47.918;8.112;2023-02-12T07:03:43;92396.56;;;-0.76;86.19
69909;BME280;57190;47.918;8.112;2023-02-12T07:06:11;92400.50;;;-0.72;85.96
69909;BME280;57190;47.918;8.112;2023-02-12T07:08:38;92406.72;;;-0.73;85.66
69909;BME280;57190;47.918;8.112;2023-02-12T07:11:04;92408.84;;;-0.69;85.80
69909;BME280;57190;47.918;8.112;2023-02-12T07:13:31;92410.50;;;-0.68;85.58
69909;BME280;57190;47.918;8.112;2023-02-12T07:16:05;92408.56;;;-0.66;85.38
69909;BME280;57190;47.918;8.112;2023-02-12T07:18:33;92406.59;;;-0.64;85.82
69909;BME280;57190;47.918;8.112;2023-02-12T07:20:59;92404.63;;;-0.53;85.36
69909;BME280;57190;47.918;8.112;2023-02-12T07:23:26;92410.34;;;-0.50;85.89
69909;BME280;57190;47.918;8.112;2023-02-12T07:25:56;92410.38;;;-0.41;86.46
69909;BME280;57190;47.918;8.112;2023-02-12T07:28:22;92418.72;;;-0.38;86.44
69909;BME280;57190;47.918;8.112;2023-02-12T07:30:49;92419.38;;;-0.36;86.74
69909;BME280;57190;47.918;8.112;2023-02-12T07:33:15;92420.38;;;-0.37;86.47
69909;BME280;57190;47.918;8.112;2023-02-12T07:35:41;92416.09;;;-0.38;87.69
69909;BME280;57190;47.918;8.112;2023-02-12T07:38:07;92412.50;;;-0.28;87.05
69909;BME280;57190;47.918;8.112;2023-02-12T07:40:33;92411.22;;;-0.24;87.42
69909;BME280;57190;47.918;8.112;2023-02-12T07:42:59;92409.41;;;-0.16;86.86
69909;BME280;57190;47.918;8.112;2023-02-12T07:45:25;92411.53;;;-0.11;86.51
69909;BME280;57190;47.918;8.112;2023-02-12T07:47:51;92406.44;;;-0.12;86.57
69909;BME280;57190;47.918;8.112;2023-02-12T07:50:17;92405.28;;;-0.10;86.04
69909;BME280;57190;47.918;8.112;2023-02-12T07:52:43;92407.91;;;-0.10;85.94
69909;BME280;57190;47.918;8.112;2023-02-12T07:55:09;92402.00;;;-0.12;84.89
69909;BME280;57190;47.918;8.112;2023-02-12T07:57:36;92406.44;;;-0.12;85.37
69909;BME280;57190;47.918;8.112;2023-02-12T08:00:03;92406.44;;;-0.04;85.03
69909;BME280;57190;47.918;8.112;2023-02-12T08:02:28;92404.63;;;-0.04;85.27
69909;BME280;57190;47.918;8.112;2023-02-12T08:04:55;92412.00;;;0.01;85.22
69909;BME280;57190;47.918;8.112;2023-02-12T08:07:22;92404.31;;;0.08;85.67
69909;BME280;57190;47.918;8.112;2023-02-12T08:09:49;92409.06;;;0.12;86.20
69909;BME280;57190;47.918;8.112;2023-02-12T08:12:17;92411.16;;;0.25;85.96
69909;BME280;57190;47.918;8.112;2023-02-12T08:14:43;92408.72;;;0.32;85.32
69909;BME280;57190;47.918;8.112;2023-02-12T08:17:09;92406.09;;;0.32;85.46
69909;BME280;57190;47.918;8.112;2023-02-12T08:19:35;92408.53;;;0.34;85.09
69909;BME280;57190;47.918;8.112;2023-02-12T08:22:01;92409.34;;;0.34;85.09
69909;BME280;57190;47.918;8.112;2023-02-12T08:24:28;92412.31;;;0.39;85.19
69909;BME280;57190;47.918;8.112;2023-02-12T08:26:54;92413.09;;;0.40;85.59
69909;BME280;57190;47.918;8.112;2023-02-12T08:29:23;92414.25;;;0.45;86.12
69909;BME280;57190;47.918;8.112;2023-02-12T08:31:54;92410.47;;;0.48;85.92
69909;BME280;57190;47.918;8.112;2023-02-12T08:34:23;92408.16;;;0.53;85.86
69909;BME280;57190;47.918;8.112;2023-02-12T08:36:50;92412.09;;;0.57;85.00
69909;BME280;57190;47.918;8.112;2023-02-12T08:39:16;92409.81;;;0.54;85.09
69909;BME280;57190;47.918;8.112;2023-02-12T08:41:42;92411.91;;;0.59;85.11
69909;BME280;57190;47.918;8.112;2023-02-12T08:44:09;92403.88;;;0.60;85.20
69909;BME280;57190;47.918;8.112;2023-02-12T08:46:37;92413.69;;;0.67;85.26
69909;BME280;57190;47.918;8.112;2023-02-12T08:49:09;92415.63;;;0.73;85.27
69909;BME280;57190;47.918;8.112;2023-02-12T08:51:38;92415.97;;;0.78;84.77
69909;BME280;57190;47.918;8.112;2023-02-12T08:54:08;92415.47;;;0.83;84.68
69909;BME280;57190;47.918;8.112;2023-02-12T08:56:34;92417.59;;;0.87;84.38
69909;BME280;57190;47.918;8.112;2023-02-12T08:59:01;92414.13;;;0.87;84.92
69909;BME280;57190;47.918;8.112;2023-02-12T09:01:30;92416.53;;;0.97;84.46
69909;BME280;57190;47.918;8.112;2023-02-12T09:03:56;92415.50;;;1.06;83.96
69909;BME280;57190;47.918;8.112;2023-02-12T09:06:23;92414.66;;;1.14;83.67
69909;BME280;57190;47.918;8.112;2023-02-12T09:08:51;92408.06;;;1.18;83.70
69909;BME280;57190;47.918;8.112;2023-02-12T09:11:19;92404.25;;;1.29;83.56
69909;BME280;57190;47.918;8.112;2023-02-12T09:13:48;92409.00;;;1.33;83.47
69909;BME280;57190;47.918;8.112;2023-02-12T09:16:14;92402.56;;;1.36;83.01
69909;BME280;57190;47.918;8.112;2023-02-12T09:18:40;92414.50;;;1.47;82.97
69909;BME280;57190;47.918;8.112;2023-02-12T09:21:11;92417.63;;;1.42;82.93
69909;BME280;57190;47.918;8.112;2023-02-12T09:23:38;92417.63;;;1.42;82.96
69909;BME280;57190;47.918;8.112;2023-02-12T09:26:06;92411.34;;;1.51;82.85
69909;BME280;57190;47.918;8.112;2023-02-12T09:28:32;92413.63;;;1.54;82.78
69909;BME280;57190;47.918;8.112;2023-02-12T09:30:58;92412.75;;;1.62;82.96
69909;BME280;57190;47.918;8.112;2023-02-12T09:33:23;92409.00;;;1.56;82.93
69909;BME280;57190;47.918;8.112;2023-02-12T09:35:49;92414.66;;;1.68;82.79
69909;BME280;57190;47.918;8.112;2023-02-12T09:38:15;92411.09;;;1.61;82.71
69909;BME280;57190;47.918;8.112;2023-02-12T09:46:46;92412.69;;;1.94;81.85
69909;BME280;57190;47.918;8.112;2023-02-12T09:52:13;92422.22;;;2.33;81.17
69909;BME280;57190;47.918;8.112;2023-02-12T09:54:42;92410.50;;;2.35;80.49
69909;BME280;57190;47.918;8.112;2023-02-12T09:57:30;92413.28;;;2.57;79.68
69909;BME280;57190;47.918;8.112;2023-02-12T10:00:07;92417.19;;;2.76;79.03
69909;BME280;57190;47.918;8.112;2023-02-12T10:02:37;92413.81;;;2.82;78.51
69909;BME280;57190;47.918;8.112;2023-02-12T10:05:05;92409.66;;;2.88;78.81
69909;BME280;57190;47.918;8.112;2023-02-12T10:15:25;92405.97;;;3.34;77.10
69909;BME280;57190;47.918;8.112;2023-02-12T10:20:51;92407.50;;;3.28;77.13
69909;BME280;57190;47.918;8.112;2023-02-12T10:26:12;92409.22;;;3.51;77.08
69909;BME280;57190;47.918;8.112;2023-02-12T10:28:42;92411.09;;;3.57;77.32
69909;BME280;57190;47.918;8.112;2023-02-12T10:31:36;92409.03;;;3.74;76.05
69909;BME280;57190;47.918;8.112;2023-02-12T10:34:14;92411.00;;;3.87;75.31
69909;BME280;57190;47.918;8.112;2023-02-12T10:36:43;92408.06;;;3.97;75.55
69909;BME280;57190;47.918;8.112;2023-02-12T10:41:40;92405.59;;;4.74;73.48
69909;BME280;57190;47.918;8.112;2023-02-12T10:44:10;92398.34;;;5.25;71.21
69909;BME280;57190;47.918;8.112;2023-02-12T10:46:36;92400.06;;;4.97;71.40
69909;BME280;57190;47.918;8.112;2023-02-12T10:49:02;92402.38;;;5.14;71.41
69909;BME280;57190;47.918;8.112;2023-02-12T10:51:57;92390.56;;;5.65;70.94
69909;BME280;57190;47.918;8.112;2023-02-12T10:54:45;92393.97;;;6.27;68.86
69909;BME280;57190;47.918;8.112;2023-02-12T10:57:17;92384.56;;;6.72;66.95
69909;BME280;57190;47.918;8.112;2023-02-12T10:59:46;92385.94;;;7.01;66.36
69909;BME280;57190;47.918;8.112;2023-02-12T11:04:49;92383.47;;;7.20;64.28
69909;BME280;57190;47.918;8.112;2023-02-12T11:07:14;92384.09;;;7.02;64.88
69909;BME280;57190;47.918;8.112;2023-02-12T11:09:51;92385.19;;;6.74;66.02
69909;BME280;57190;47.918;8.112;2023-02-12T11:12:32;92389.47;;;6.68;65.06
69909;BME280;57190;47.918;8.112;2023-02-12T11:15:03;92375.94;;;7.03;65.33
69909;BME280;57190;47.918;8.112;2023-02-12T11:17:37;92375.44;;;7.40;64.84
69909;BME280;57190;47.918;8.112;2023-02-12T11:23:01;92377.41;;;6.79;65.61
69909;BME280;57190;47.918;8.112;2023-02-12T11:25:29;92374.19;;;6.57;66.64
69909;BME280;57190;47.918;8.112;2023-02-12T11:28:02;92366.25;;;6.23;66.53
69909;BME280;57190;47.918;8.112;2023-02-12T11:30:29;92361.94;;;6.16;67.60
69909;BME280;57190;47.918;8.112;2023-02-12T11:33:13;92360.09;;;6.43;66.74
69909;BME280;57190;47.918;8.112;2023-02-12T11:35:52;92362.16;;;6.41;67.02
69909;BME280;57190;47.918;8.112;2023-02-12T11:38:23;92357.69;;;6.48;66.96
69909;BME280;57190;47.918;8.112;2023-02-12T11:40:51;92356.66;;;6.36;66.99
69909;BME280;57190;47.918;8.112;2023-02-12T11:43:18;92350.75;;;6.34;67.12
69909;BME280;57190;47.918;8.112;2023-02-12T11:45:46;92352.78;;;6.32;67.30
69909;BME280;57190;47.918;8.112;2023-02-12T11:48:24;92351.38;;;6.29;67.36
69909;BME280;57190;47.918;8.112;2023-02-12T11:50:53;92352.78;;;6.45;67.13
69909;BME280;57190;47.918;8.112;2023-02-12T11:53:30;92347.88;;;6.62;66.54
69909;BME280;57190;47.918;8.112;2023-02-12T11:56:09;92342.53;;;6.82;66.47
69909;BME280;57190;47.918;8.112;2023-02-12T11:58:35;92342.09;;;6.85;66.30
69909;BME280;57190;47.918;8.112;2023-02-12T12:01:26;92343.56;;;6.68;66.59
69909;BME280;57190;47.918;8.112;2023-02-12T12:04:05;92341.75;;;6.61;66.29
69909;BME280;57190;47.918;8.112;2023-02-12T12:07:40;92339.72;;;6.70;67.00
69909;BME280;57190;47.918;8.112;2023-02-12T12:09:47;92331.31;;;6.87;66.86
69909;BME280;57190;47.918;8.112;2023-02-12T12:18:13;92331.03;;;7.02;65.24
69909;BME280;57190;47.918;8.112;2023-02-12T12:23:34;92326.13;;;7.12;65.28
69909;BME280;57190;47.918;8.112;2023-02-12T12:26:12;92315.69;;;7.17;64.71
69909;BME280;57190;47.918;8.112;2023-02-12T12:28:50;92310.09;;;7.32;64.15
69909;BME280;57190;47.918;8.112;2023-02-12T12:31:37;92311.69;;;7.47;63.95
69909;BME280;57190;47.918;8.112;2023-02-12T12:34:15;92313.28;;;7.48;63.46
69909;BME280;57190;47.918;8.112;2023-02-12T12:42:20;92316.03;;;7.34;64.01
69909;BME280;57190;47.918;8.112;2023-02-12T12:45:11;92311.97;;;7.25;63.78
69909;BME280;57190;47.918;8.112;2023-02-12T12:59:13;92309.63;;;7.49;63.64
69909;BME280;57190;47.918;8.112;2023-02-12T13:21:53;92306.50;;;7.91;62.17
69909;BME280;57190;47.918;8.112;2023-02-12T13:24:37;92303.25;;;7.89;61.95
69909;BME280;57190;47.918;8.112;2023-02-12T13:27:21;92307.97;;;7.86;61.75
69909;BME280;57190;47.918;8.112;2023-02-12T13:29:53;92298.34;;;7.85;61.28
69909;BME280;57190;47.918;8.112;2023-02-12T13:33:12;92298.50;;;7.97;62.25
69909;BME280;57190;47.918;8.112;2023-02-12T13:35:41;92295.66;;;7.92;61.55
69909;BME280;57190;47.918;8.112;2023-02-12T13:38:23;92301.25;;;7.84;61.74
69909;BME280;57190;47.918;8.112;2023-02-12T13:40:53;92295.44;;;7.94;62.11
69909;BME280;57190;47.918;8.112;2023-02-12T13:44:23;92290.19;;;7.87;62.32
69909;BME280;57190;47.918;8.112;2023-02-12T13:46:55;92299.06;;;7.74;62.39
69909;BME280;57190;47.918;8.112;2023-02-12T13:52:43;92292.91;;;7.74;61.67
69909;BME280;57190;47.918;8.112;2023-02-12T13:55:31;92290.50;;;7.72;61.44
69909;BME280;57190;47.918;8.112;2023-02-12T14:04:31;92288.50;;;7.61;63.28
69909;BME280;57190;47.918;8.112;2023-02-12T14:07:09;92283.81;;;7.63;62.50
69909;BME280;57190;47.918;8.112;2023-02-12T14:12:10;92283.78;;;7.69;63.08
69909;BME280;57190;47.918;8.112;2023-02-12T14:14:43;92281.34;;;7.68;62.55
69909;BME280;57190;47.918;8.112;2023-02-12T14:20:23;92276.03;;;7.68;62.98
69909;BME280;57190;47.918;8.112;2023-02-12T14:27:58;92276.66;;;7.63;62.28
69909;BME280;57190;47.918;8.112;2023-02-12T14:30:38;92281.13;;;7.69;61.88
69909;BME280;57190;47.918;8.112;2023-02-12T14:35:41;92281.13;;;7.69;62.43
69909;BME280;57190;47.918;8.112;2023-02-12T14:43:34;92279.91;;;7.65;61.64
69909;BME280;57190;47.918;8.112;2023-02-12T14:49:02;92278.59;;;7.49;60.79
69909;BME280;57190;47.918;8.112;2023-02-12T14:52:00;92284.47;;;7.51;60.08
69909;BME280;57190;47.918;8.112;2023-02-12T14:54:49;92278.13;;;7.52;60.33
69909;BME280;57190;47.918;8.112;2023-02-12T14:57:32;92264.88;;;7.84;63.09
69909;BME280;57190;47.918;8.112;2023-02-12T15:02:32;92268.94;;;8.12;59.29
69909;BME280;57190;47.918;8.112;2023-02-12T15:05:18;92273.66;;;7.85;58.93
69909;BME280;57190;47.918;8.112;2023-02-12T15:10:28;92286.06;;;7.59;60.17
69909;BME280;57190;47.918;8.112;2023-02-12T15:13:30;92276.91;;;7.55;60.01
69909;BME280;57190;47.918;8.112;2023-02-12T15:16:32;92281.03;;;7.44;60.54
69909;BME280;57190;47.918;8.112;2023-02-12T15:21:57;92290.13;;;7.23;62.05
69909;BME280;57190;47.918;8.112;2023-02-12T15:24:25;92287.09;;;7.19;62.47
69909;BME280;57190;47.918;8.112;2023-02-12T15:26:57;92297.75;;;7.13;62.54
69909;BME280;57190;47.918;8.112;2023-02-12T15:31:57;92302.44;;;7.11;63.28
69909;BME280;57190;47.918;8.112;2023-02-12T15:34:26;92303.88;;;7.06;62.89
69909;BME280;57190;47.918;8.112;2023-02-12T15:36:55;92308.41;;;6.92;64.39
69909;BME280;57190;47.918;8.112;2023-02-12T15:39:23;92306.66;;;6.73;64.73
69909;BME280;57190;47.918;8.112;2023-02-12T15:41:51;92306.66;;;6.59;65.57
69909;BME280;57190;47.918;8.112;2023-02-12T15:44:24;92312.63;;;6.41;66.32
69909;BME280;57190;47.918;8.112;2023-02-12T15:49:32;92309.38;;;6.12;68.00
69909;BME280;57190;47.918;8.112;2023-02-12T15:52:00;92316.09;;;6.02;68.25
69909;BME280;57190;47.918;8.112;2023-02-12T15:54:27;92317.28;;;5.92;68.40
69909;BME280;57190;47.918;8.112;2023-02-12T15:56:54;92321.34;;;5.81;69.34
69909;BME280;57190;47.918;8.112;2023-02-12T15:59:24;92309.94;;;5.74;69.75
69909;BME280;57190;47.918;8.112;2023-02-12T16:01:57;92318.91;;;5.66;69.49
69909;BME280;57190;47.918;8.112;2023-02-12T16:04:25;92319.47;;;5.55;70.19
69909;BME280;57190;47.918;8.112;2023-02-12T16:06:55;92319.25;;;5.50;70.75